Time;durP1;ratioP1;P1;durP2;ratioP2;P2;SDS_P1;SDS_P2;PMS_P1;PMS_P2;Temp;Humidity;BMP_temperature;BMP_pressure;BME280_temperature;BME280_humidity;BME280_pressure;Samples;Min_cycle;Max_cycle;Signal;HPM_P1;HPM_P2
2022/07/03 00:01:40;;;;;;;5.70;4.20;;;21.10;71.30;;;;;;5076143;28;20443;-45
2022/07/03 00:04:07;;;;;;;5.17;4.20;;;21.10;71.80;;;;;;5076356;28;20534;-39
2022/07/03 00:06:35;;;;;;;4.10;3.67;;;21.10;71.50;;;;;;5076391;28;20506;-49
2022/07/03 00:09:04;;;;;;;4.97;3.77;;;21.10;72.40;;;;;;5076330;28;20431;-51
2022/07/03 00:11:31;;;;;;;5.00;3.40;;;21.00;72.10;;;;;;5076516;28;20482;-47
2022/07/03 00:14:00;;;;;;;4.77;3.80;;;21.00;72.90;;;;;;5075582;28;20506;-52
2022/07/03 00:16:27;;;;;;;5.60;4.30;;;21.00;73.20;;;;;;5075912;28;20475;-46
2022/07/03 00:18:57;;;;;;;3.60;3.30;;;21.00;73.10;;;;;;5055236;28;20425;-48
2022/07/03 00:21:28;;;;;;;3.87;3.50;;;21.00;73.40;;;;;;5055444;28;20508;-48
2022/07/03 00:24:01;;;;;;;3.70;3.40;;;20.90;73.30;;;;;;5057053;28;20483;-44
2022/07/03 00:26:31;;;;;;;4.00;3.60;;;20.90;74.10;;;;;;5055838;28;20500;-48
2022/07/03 00:29:02;;;;;;;4.90;4.30;;;20.90;73.70;;;;;;5055151;28;20504;-50
2022/07/03 00:31:30;;;;;;;5.43;3.80;;;20.80;73.80;;;;;;5056681;28;20474;-49
2022/07/03 00:33:59;;;;;;;3.83;3.50;;;20.70;74.80;;;;;;5056303;28;20441;-53
2022/07/03 00:36:29;;;;;;;3.97;3.40;;;20.70;74.90;;;;;;5055814;28;20476;-49
2022/07/03 00:38:56;;;;;;;6.23;4.20;;;20.70;74.90;;;;;;5056019;28;20499;-45
2022/07/03 00:41:28;;;;;;;4.37;3.90;;;20.70;75.30;;;;;;5055976;28;20458;-49
2022/07/03 00:43:55;;;;;;;5.60;3.83;;;20.60;75.80;;;;;;5055486;28;20464;-47
2022/07/03 00:46:25;;;;;;;5.90;3.90;;;20.60;76.30;;;;;;5055943;28;20451;-39
2022/07/03 00:48:53;;;;;;;3.60;3.23;;;20.60;76.00;;;;;;5055417;28;20519;-45
2022/07/03 00:51:23;;;;;;;4.07;3.27;;;20.60;76.80;;;;;;5056031;28;20432;-43
2022/07/03 00:53:52;;;;;;;4.40;3.90;;;20.50;77.50;;;;;;5055240;28;20500;-58
2022/07/03 00:56:25;;;;;;;4.40;3.63;;;20.50;77.10;;;;;;5055780;28;20490;-57
2022/07/03 00:58:54;;;;;;;5.43;3.60;;;20.50;77.90;;;;;;5056072;28;20464;-52
2022/07/03 01:01:25;;;;;;;3.60;3.30;;;20.50;77.80;;;;;;5054049;28;20428;-48
2022/07/03 01:04:13;;;;;;;3.50;3.20;;;20.50;78.50;;;;;;5055530;28;20434;-48
2022/07/03 01:06:51;;;;;;;5.30;3.70;;;20.50;78.70;;;;;;5054699;28;20504;-45
2022/07/03 01:09:29;;;;;;;4.40;4.00;;;20.50;78.90;;;;;;5055842;28;20788;-42
2022/07/03 01:12:03;;;;;;;4.20;3.80;;;20.40;79.60;;;;;;5055906;28;20439;-51
2022/07/03 01:14:40;;;;;;;5.23;3.80;;;20.40;80.30;;;;;;5055300;28;20443;-56
2022/07/03 01:17:18;;;;;;;6.57;4.37;;;20.40;80.40;;;;;;5055836;28;20479;-46
2022/07/03 01:19:50;;;;;;;4.43;3.53;;;20.30;80.50;;;;;;5055314;28;20516;-54
2022/07/03 01:22:32;;;;;;;4.57;3.73;;;20.30;80.90;;;;;;5055970;28;20504;-48
2022/07/03 01:25:17;;;;;;;5.67;3.90;;;20.20;81.70;;;;;;5055500;28;20436;-51
2022/07/03 01:27:59;;;;;;;3.43;3.10;;;20.20;83.10;;;;;;5055644;28;20452;-40
2022/07/03 01:30:28;;;;;;;4.43;4.03;;;20.20;84.60;;;;;;5055605;28;20444;-43
2022/07/03 01:32:59;;;;;;;5.33;4.07;;;20.10;84.40;;;;;;5055648;28;20440;-51
2022/07/03 01:35:29;;;;;;;4.73;4.10;;;20.10;84.70;;;;;;5055523;28;20503;-50
2022/07/03 01:37:57;;;;;;;4.80;4.10;;;20.10;85.20;;;;;;5055082;28;20483;-43
2022/07/03 01:40:27;;;;;;;3.50;3.20;;;20.10;86.20;;;;;;5054880;28;20528;-48
2022/07/03 01:42:57;;;;;;;4.37;3.97;;;20.00;87.00;;;;;;5054844;28;20460;-55
2022/07/03 01:45:27;;;;;;;3.67;3.37;;;20.00;86.80;;;;;;5056283;28;20444;-46
2022/07/03 01:47:57;;;;;;;4.50;4.07;;;20.00;87.70;;;;;;5056278;28;20555;-59
2022/07/03 01:50:26;;;;;;;4.10;3.63;;;20.00;88.30;;;;;;5056299;28;20500;-40
2022/07/03 01:52:55;;;;;;;9.17;4.73;;;20.00;89.40;;;;;;5055618;28;20472;-44
2022/07/03 01:55:23;;;;;;;4.20;3.50;;;19.90;90.00;;;;;;5055574;28;20492;-39
2022/07/03 01:57:51;;;;;;;4.30;3.50;;;19.90;90.90;;;;;;5055195;28;20488;-53
2022/07/03 02:00:21;;;;;;;3.83;3.43;;;19.90;90.50;;;;;;5055179;28;20460;-41
2022/07/03 02:02:56;;;;;;;4.70;3.80;;;19.80;90.90;;;;;;5054930;28;20450;-40
2022/07/03 02:05:35;;;;;;;4.70;4.20;;;19.80;91.50;;;;;;5054731;28;20544;-57
2022/07/03 02:08:11;;;;;;;5.53;4.50;;;19.70;91.90;;;;;;5054961;28;20451;-47
2022/07/03 02:10:45;;;;;;;5.40;4.90;;;19.70;92.30;;;;;;5055126;28;20428;-50
2022/07/03 02:13:17;;;;;;;4.20;3.80;;;19.70;92.70;;;;;;5055274;28;20467;-47
2022/07/03 02:15:50;;;;;;;4.63;3.60;;;19.70;93.30;;;;;;5054978;28;20413;-52
2022/07/03 02:18:29;;;;;;;4.17;3.77;;;19.60;93.50;;;;;;5055324;28;20460;-44
2022/07/03 02:21:04;;;;;;;5.00;3.97;;;19.60;93.90;;;;;;5054982;28;20897;-48
2022/07/03 02:23:37;;;;;;;4.30;3.90;;;19.60;94.60;;;;;;5054836;28;20474;-44
2022/07/03 02:26:05;;;;;;;4.10;3.70;;;19.60;94.80;;;;;;5054784;28;20408;-55
2022/07/03 02:28:46;;;;;;;7.63;4.93;;;19.50;95.30;;;;;;5055215;28;20468;-46
2022/07/03 02:31:17;;;;;;;4.83;4.33;;;19.50;96.00;;;;;;5053194;28;20444;-49
2022/07/03 02:33:45;;;;;;;6.67;4.30;;;19.50;96.30;;;;;;5054981;28;20432;-49
2022/07/03 02:36:17;;;;;;;5.53;4.47;;;19.50;97.00;;;;;;5053950;28;20488;-43
2022/07/03 02:38:52;;;;;;;4.30;3.80;;;19.50;97.10;;;;;;5054737;28;20420;-49
2022/07/03 02:41:24;;;;;;;4.67;4.17;;;19.50;97.50;;;;;;5055134;28;20510;-49
2022/07/03 02:44:00;;;;;;;6.33;4.93;;;19.40;97.80;;;;;;5054846;28;20447;-47
2022/07/03 02:46:50;;;;;;;4.23;3.83;;;19.40;98.30;;;;;;5054848;28;20486;-46
2022/07/03 02:49:31;;;;;;;5.63;4.20;;;19.40;98.90;;;;;;5054846;28;20412;-51
2022/07/03 02:52:09;;;;;;;5.77;4.30;;;19.40;99.20;;;;;;5053958;28;20491;-51
2022/07/03 02:54:44;;;;;;;4.30;3.87;;;19.40;99.90;;;;;;5054608;28;20740;-52
2022/07/03 02:57:11;;;;;;;6.77;4.20;;;19.30;99.90;;;;;;5055196;28;20516;-51
2022/07/03 02:59:53;;;;;;;5.53;4.77;;;19.30;99.90;;;;;;5054202;28;20455;-44
2022/07/03 03:02:37;;;;;;;10.17;4.57;;;19.30;99.90;;;;;;5054414;28;20454;-46
2022/07/03 03:05:10;;;;;;;5.73;4.40;;;19.30;99.90;;;;;;5054434;28;20474;-53
2022/07/03 03:07:49;;;;;;;4.83;4.43;;;19.40;99.90;;;;;;5054970;28;20456;-43
2022/07/03 03:10:20;;;;;;;5.50;4.00;;;19.40;99.90;;;;;;5054659;28;20602;-47
2022/07/03 03:12:53;;;;;;;4.97;4.27;;;19.40;99.90;;;;;;5055649;28;20433;-53
2022/07/03 03:15:25;;;;;;;6.10;4.57;;;19.30;99.90;;;;;;5054725;28;20419;-41
2022/07/03 03:17:57;;;;;;;5.13;4.63;;;19.30;99.90;;;;;;5054928;28;20744;-52
2022/07/03 03:20:30;;;;;;;6.63;4.40;;;19.30;99.90;;;;;;5054606;28;20429;-49
2022/07/03 03:23:12;;;;;;;4.77;4.33;;;19.30;99.90;;;;;;5054777;28;20471;-54
2022/07/03 03:25:39;;;;;;;5.20;4.40;;;19.20;99.90;;;;;;5054299;28;20444;-51
2022/07/03 03:28:08;;;;;;;6.20;4.90;;;19.30;99.90;;;;;;5054302;28;20474;-45
2022/07/03 03:30:36;;;;;;;7.07;4.37;;;19.30;99.90;;;;;;5054770;28;20456;-52
2022/07/03 03:33:06;;;;;;;5.70;4.70;;;19.30;99.90;;;;;;5054625;28;20461;-43
2022/07/03 03:35:34;;;;;;;5.97;5.10;;;19.30;99.90;;;;;;5055298;28;20436;-51
2022/07/03 03:38:00;;;;;;;5.30;4.20;;;19.20;99.90;;;;;;5054726;28;20495;-49
2022/07/03 03:40:27;;;;;;;4.97;4.47;;;19.30;99.90;;;;;;5054111;28;20451;-40
2022/07/03 03:42:54;;;;;;;4.80;4.40;;;19.30;99.90;;;;;;5055010;28;20450;-48
2022/07/03 03:45:21;;;;;;;5.27;4.40;;;19.30;99.90;;;;;;5048153;28;20471;-45
2022/07/03 03:47:48;;;;;;;5.83;4.93;;;19.30;99.90;;;;;;5052272;28;20475;-47
2022/07/03 03:50:17;;;;;;;5.57;4.23;;;19.30;99.90;;;;;;5051433;28;20446;-47
2022/07/03 03:52:43;;;;;;;4.70;4.30;;;19.30;99.90;;;;;;5053240;28;20459;-52
2022/07/03 03:55:10;;;;;;;4.90;4.50;;;19.30;99.90;;;;;;5054643;28;20490;-49
2022/07/03 03:57:41;;;;;;;5.77;4.10;;;19.30;99.90;;;;;;5051833;28;20559;-42
2022/07/03 04:00:08;;;;;;;4.10;3.70;;;19.30;99.90;;;;;;5053810;28;20534;-47
2022/07/03 04:02:35;;;;;;;5.80;4.10;;;19.30;99.90;;;;;;5052579;28;20464;-50
2022/07/03 04:05:05;;;;;;;5.10;4.70;;;19.40;99.90;;;;;;5052787;28;20459;-55
2022/07/03 04:07:33;;;;;;;5.30;4.70;;;19.40;99.90;;;;;;5052643;28;20470;-47
2022/07/03 04:10:00;;;;;;;6.03;4.90;;;19.30;99.90;;;;;;5058202;28;20876;-51
2022/07/03 04:12:26;;;;;;;5.00;4.30;;;19.30;99.90;;;;;;5057108;28;20470;-50
2022/07/03 04:14:53;;;;;;;5.83;4.53;;;19.30;99.90;;;;;;5055321;28;20447;-57
2022/07/03 04:17:20;;;;;;;6.03;4.77;;;19.30;99.90;;;;;;5055879;28;20492;-48
2022/07/03 04:19:47;;;;;;;5.10;4.57;;;19.30;99.90;;;;;;5057466;28;20431;-48
2022/07/03 04:22:14;;;;;;;5.17;4.30;;;19.30;99.90;;;;;;5056424;28;20551;-52
2022/07/03 04:24:42;;;;;;;4.87;4.43;;;19.40;99.90;;;;;;5056338;28;20515;-52
2022/07/03 04:27:09;;;;;;;4.03;3.70;;;19.40;99.90;;;;;;5058432;28;20428;-48
2022/07/03 04:29:38;;;;;;;7.83;4.53;;;19.40;99.90;;;;;;5054256;28;20486;-51
2022/07/03 04:32:06;;;;;;;4.90;4.37;;;19.40;99.90;;;;;;5055272;28;20496;-48
2022/07/03 04:34:33;;;;;;;4.37;3.97;;;19.40;99.90;;;;;;5055359;28;20458;-44
2022/07/03 04:37:00;;;;;;;4.97;4.50;;;19.50;99.90;;;;;;5053183;28;20562;-46
2022/07/03 04:39:26;;;;;;;5.27;4.77;;;19.50;99.90;;;;;;5054809;28;20472;-45
2022/07/03 04:41:55;;;;;;;4.80;4.40;;;19.60;99.90;;;;;;5052255;28;20458;-54
2022/07/03 04:44:22;;;;;;;5.60;4.77;;;19.60;99.90;;;;;;5047873;28;20472;-56
2022/07/03 04:46:50;;;;;;;5.63;4.77;;;19.60;99.90;;;;;;5054214;28;20516;-47
2022/07/03 04:49:17;;;;;;;6.43;5.10;;;19.60;99.90;;;;;;5048386;28;20454;-58
2022/07/03 04:51:44;;;;;;;6.50;4.60;;;19.60;99.90;;;;;;5053246;28;20468;-47
2022/07/03 04:54:11;;;;;;;7.00;4.57;;;19.70;99.90;;;;;;5051949;28;20951;-42
2022/07/03 04:56:38;;;;;;;4.30;3.90;;;19.80;99.90;;;;;;5051524;28;20508;-58
2022/07/03 04:59:06;;;;;;;4.70;4.30;;;19.80;99.90;;;;;;5050443;28;20468;-41
2022/07/03 05:01:33;;;;;;;4.93;4.47;;;19.80;99.90;;;;;;5052610;28;20432;-46
2022/07/03 05:03:59;;;;;;;5.30;4.77;;;19.90;99.90;;;;;;5052850;28;20503;-58
2022/07/03 05:06:26;;;;;;;5.00;4.50;;;19.90;99.90;;;;;;5050349;28;20531;-55
2022/07/03 05:08:57;;;;;;;7.43;4.37;;;20.00;99.90;;;;;;5056260;28;20484;-51
2022/07/03 05:11:24;;;;;;;4.87;4.37;;;20.10;99.90;;;;;;5050279;28;20464;-49
2022/07/03 05:13:50;;;;;;;5.07;4.57;;;20.20;99.90;;;;;;5052383;28;20475;-53
2022/07/03 05:16:19;;;;;;;4.90;4.50;;;20.20;99.90;;;;;;5053579;28;20466;-49
2022/07/03 05:18:45;;;;;;;4.33;3.93;;;20.30;99.90;;;;;;5049424;28;20567;-58
2022/07/03 05:21:12;;;;;;;4.83;4.20;;;20.40;99.90;;;;;;5053175;28;20543;-53
2022/07/03 05:23:41;;;;;;;4.47;4.07;;;20.40;99.90;;;;;;5054297;28;20459;-50
2022/07/03 05:26:10;;;;;;;4.20;3.80;;;20.40;99.90;;;;;;5053123;28;20448;-44
2022/07/03 05:28:37;;;;;;;7.43;3.90;;;20.50;99.90;;;;;;5052116;28;20437;-52
2022/07/03 05:31:04;;;;;;;3.43;3.13;;;20.60;99.90;;;;;;5054346;28;20499;-48
2022/07/03 05:33:32;;;;;;;4.87;4.37;;;20.60;99.90;;;;;;5055291;28;20551;-44
2022/07/03 05:36:00;;;;;;;5.40;4.13;;;20.70;99.90;;;;;;5050230;28;20469;-53
2022/07/03 05:41:15;;;;;;;3.43;3.20;;;20.90;99.90;;;;;;5065759;28;20410;-57
2022/07/03 05:43:42;;;;;;;4.73;3.30;;;20.90;99.90;;;;;;5063439;28;20435;-55
2022/07/03 05:46:09;;;;;;;4.70;4.27;;;21.00;99.90;;;;;;5064669;28;20590;-53
2022/07/03 05:48:39;;;;;;;4.73;4.33;;;21.10;99.90;;;;;;5058961;28;20463;-54
2022/07/03 05:51:06;;;;;;;4.47;4.00;;;21.10;99.90;;;;;;5060396;28;20445;-53
2022/07/03 05:53:33;;;;;;;5.50;4.63;;;21.20;99.90;;;;;;5059746;28;20472;-50
2022/07/03 05:56:00;;;;;;;5.87;4.20;;;21.30;99.90;;;;;;5052995;28;20472;-56
2022/07/03 05:58:27;;;;;;;4.03;3.70;;;21.40;99.90;;;;;;5054338;28;20484;-46
2022/07/03 06:00:54;;;;;;;3.63;3.40;;;21.40;99.90;;;;;;5064189;28;20563;-51
2022/07/03 06:03:21;;;;;;;3.50;3.30;;;21.40;99.90;;;;;;5063632;28;20444;-52
2022/07/03 06:05:51;;;;;;;3.70;3.40;;;21.50;99.90;;;;;;5066232;28;20508;-52
2022/07/03 06:08:18;;;;;;;3.70;3.40;;;21.50;99.90;;;;;;5064603;28;20570;-52
2022/07/03 06:10:45;;;;;;;4.30;3.90;;;21.60;99.90;;;;;;5068208;28;20431;-55
2022/07/03 06:13:12;;;;;;;5.37;3.50;;;21.70;99.90;;;;;;5073772;28;20467;-48
2022/07/03 06:15:39;;;;;;;6.17;3.80;;;21.70;99.90;;;;;;5061753;28;20539;-52
2022/07/03 06:18:07;;;;;;;3.90;3.60;;;21.80;99.90;;;;;;5060720;28;20471;-52
2022/07/03 06:20:34;;;;;;;5.33;4.30;;;21.90;99.90;;;;;;5058949;28;20417;-59
2022/07/03 06:23:02;;;;;;;4.17;3.30;;;22.00;99.90;;;;;;5057958;28;20463;-45
2022/07/03 06:25:29;;;;;;;3.70;3.40;;;22.10;99.90;;;;;;5060755;28;20462;-47
2022/07/03 06:27:56;;;;;;;3.57;3.27;;;22.20;99.90;;;;;;5060394;28;20445;-47
2022/07/03 06:30:23;;;;;;;5.30;3.13;;;22.20;99.90;;;;;;5055477;28;20471;-57
2022/07/03 06:32:49;;;;;;;4.53;4.07;;;22.30;99.90;;;;;;5051498;28;20447;-56
2022/07/03 06:35:16;;;;;;;4.30;3.47;;;22.40;99.90;;;;;;5050381;28;20444;-49
2022/07/03 06:37:43;;;;;;;4.00;3.30;;;22.40;99.90;;;;;;5049679;28;20488;-53
2022/07/03 06:40:12;;;;;;;3.60;3.30;;;22.40;99.90;;;;;;5053896;28;20532;-52
2022/07/03 06:42:39;;;;;;;3.63;3.30;;;22.50;99.90;;;;;;5046833;28;20513;-45
2022/07/03 06:45:06;;;;;;;3.83;3.53;;;22.60;99.60;;;;;;5048512;28;20474;-57
2022/07/03 06:47:38;;;;;;;3.73;3.43;;;22.70;99.40;;;;;;5050503;28;20446;-55
2022/07/03 06:50:08;;;;;;;3.50;3.20;;;22.70;99.20;;;;;;5050354;28;20472;-42
2022/07/03 06:52:35;;;;;;;4.30;3.63;;;22.90;98.70;;;;;;5051282;28;20500;-53
2022/07/03 06:55:02;;;;;;;5.00;3.80;;;23.00;98.70;;;;;;5046725;28;20543;-50
2022/07/03 06:57:30;;;;;;;4.50;3.60;;;23.10;98.40;;;;;;5048504;28;20490;-51
2022/07/03 06:59:57;;;;;;;3.03;2.83;;;23.20;97.70;;;;;;5045380;28;20454;-52
2022/07/03 07:02:24;;;;;;;3.50;3.20;;;23.30;97.40;;;;;;5050471;28;20468;-54
2022/07/03 07:04:50;;;;;;;4.30;3.43;;;23.30;96.90;;;;;;5049918;28;20462;-52
2022/07/03 07:07:17;;;;;;;4.97;3.50;;;23.40;96.40;;;;;;5048870;28;20460;-56
2022/07/03 07:09:44;;;;;;;3.80;3.40;;;23.60;97.20;;;;;;5052431;28;20479;-53
2022/07/03 07:12:11;;;;;;;3.97;3.57;;;23.70;97.00;;;;;;5050581;28;20448;-46
2022/07/03 07:14:39;;;;;;;4.57;3.53;;;24.00;96.70;;;;;;5051184;28;20511;-52
2022/07/03 07:17:06;;;;;;;4.43;4.03;;;24.20;96.30;;;;;;5052089;28;20512;-45
2022/07/03 07:19:33;;;;;;;4.77;3.70;;;24.50;94.90;;;;;;5052272;28;20518;-45
2022/07/03 07:22:00;;;;;;;4.90;3.00;;;24.90;95.20;;;;;;5052167;28;20496;-53
2022/07/03 07:24:27;;;;;;;3.30;2.90;;;26.10;92.70;;;;;;5055882;28;20516;-51
2022/07/03 07:26:55;;;;;;;3.13;2.83;;;27.60;87.40;;;;;;5055320;28;20471;-57
2022/07/03 07:29:22;;;;;;;5.23;3.17;;;29.10;79.70;;;;;;5052899;28;20460;-52
2022/07/03 07:31:51;;;;;;;3.13;2.87;;;30.50;72.80;;;;;;5053028;28;20468;-57
2022/07/03 07:34:18;;;;;;;3.40;3.10;;;31.80;65.80;;;;;;5052069;28;20500;-55
2022/07/03 07:36:45;;;;;;;6.27;3.47;;;33.10;58.70;;;;;;5053256;28;20531;-50
2022/07/03 07:39:11;;;;;;;3.00;2.70;;;34.20;55.80;;;;;;5053912;28;20567;-55
2022/07/03 07:41:39;;;;;;;3.50;3.20;;;35.20;52.70;;;;;;5054773;28;20459;-53
2022/07/03 07:44:05;;;;;;;3.50;3.20;;;35.60;50.10;;;;;;5054585;28;20551;-59
2022/07/03 07:46:32;;;;;;;3.73;3.40;;;35.70;48.20;;;;;;5052590;28;20968;-58
2022/07/03 07:49:00;;;;;;;3.07;2.77;;;36.10;48.00;;;;;;5054856;28;20451;-46
2022/07/03 07:51:27;;;;;;;3.37;3.07;;;36.40;46.70;;;;;;5055289;28;20512;-47
2022/07/03 07:53:59;;;;;;;3.17;2.93;;;36.90;45.90;;;;;;5055744;28;20478;-54
2022/07/03 07:56:26;;;;;;;6.17;3.03;;;37.40;43.90;;;;;;5056376;28;20486;-58
2022/07/03 07:58:52;;;;;;;3.77;2.73;;;37.40;43.30;;;;;;5054099;28;20497;-57
2022/07/03 08:06:52;;;;;;;5.40;2.90;;;37.70;42.40;;;;;;5053767;28;20416;-52
2022/07/03 08:09:19;;;;;;;4.20;3.30;;;38.10;41.30;;;;;;5053502;28;20473;-55
2022/07/03 08:11:46;;;;;;;4.27;3.10;;;38.20;41.10;;;;;;5055955;28;20448;-56
2022/07/03 08:14:12;;;;;;;3.40;3.10;;;38.30;40.20;;;;;;5055714;28;20444;-53
2022/07/03 08:16:40;;;;;;;3.87;2.90;;;38.10;39.90;;;;;;5053647;28;20472;-51
2022/07/03 08:19:09;;;;;;;2.50;2.30;;;37.50;40.20;;;;;;5053894;28;20479;-47
2022/07/03 08:21:36;;;;;;;2.83;2.57;;;37.30;40.20;;;;;;5051750;28;20453;-57
2022/07/03 08:24:03;;;;;;;4.50;3.07;;;36.90;40.90;;;;;;5050417;28;20444;-57
2022/07/03 08:26:29;;;;;;;3.50;3.20;;;36.50;40.80;;;;;;5053033;28;20458;-53
2022/07/03 08:28:56;;;;;;;3.27;2.97;;;37.00;41.00;;;;;;5054589;28;20470;-55
2022/07/03 08:31:23;;;;;;;4.00;2.90;;;37.60;40.10;;;;;;5055870;28;20479;-53
2022/07/03 08:33:52;;;;;;;3.13;2.93;;;38.00;39.80;;;;;;5054066;28;20473;-57
2022/07/03 08:36:20;;;;;;;3.57;3.37;;;38.30;38.90;;;;;;5052252;28;20472;-53
2022/07/03 08:38:47;;;;;;;3.30;3.00;;;38.50;38.50;;;;;;5052364;28;20554;-55
2022/07/03 08:41:16;;;;;;;3.43;3.13;;;38.50;38.30;;;;;;5054833;28;20496;-49
2022/07/03 08:43:44;;;;;;;5.90;3.13;;;38.70;38.10;;;;;;5051281;28;20448;-43
2022/07/03 08:46:12;;;;;;;4.20;3.00;;;38.80;37.60;;;;;;5054680;28;20480;-57
2022/07/03 08:48:40;;;;;;;4.10;2.63;;;38.50;37.80;;;;;;5049552;28;20456;-55
2022/07/03 08:51:09;;;;;;;6.70;3.13;;;38.10;38.30;;;;;;5050146;28;20831;-54
2022/07/03 08:53:39;;;;;;;4.60;3.20;;;38.00;38.20;;;;;;5050681;28;20452;-55
2022/07/03 08:56:07;;;;;;;2.87;2.67;;;37.80;38.00;;;;;;5049145;28;20808;-53
2022/07/03 08:58:34;;;;;;;3.00;2.80;;;37.70;38.30;;;;;;5048030;28;20476;-51
2022/07/03 09:01:01;;;;;;;4.23;3.20;;;37.80;38.70;;;;;;5052621;28;20539;-48
2022/07/03 09:03:29;;;;;;;3.23;2.93;;;38.20;38.40;;;;;;5054528;28;20447;-51
2022/07/03 09:05:57;;;;;;;4.60;3.00;;;38.80;37.60;;;;;;5054941;28;20512;-55
2022/07/03 09:08:26;;;;;;;2.80;2.60;;;39.40;37.20;;;;;;5055883;28;20840;-56
2022/07/03 09:10:55;;;;;;;4.77;3.50;;;39.70;36.30;;;;;;5056124;28;20480;-50
2022/07/03 09:13:21;;;;;;;3.27;2.73;;;39.70;36.10;;;;;;5055584;28;20500;-58
2022/07/03 09:15:51;;;;;;;5.40;3.90;;;39.50;36.30;;;;;;5047182;28;20562;-47
2022/07/03 09:18:18;;;;;;;4.27;2.70;;;39.50;36.70;;;;;;5072054;28;20471;-50
2022/07/03 09:20:45;;;;;;;3.00;2.80;;;39.70;35.60;;;;;;5073345;28;20522;-58
2022/07/03 09:23:18;;;;;;;3.27;3.00;;;39.60;35.90;;;;;;5071274;28;20447;-52
2022/07/03 09:25:56;;;;;;;3.17;2.97;;;39.80;35.60;;;;;;5073374;28;20447;-55
2022/07/03 09:28:24;;;;;;;3.33;3.03;;;39.90;35.50;;;;;;5072198;28;20455;-54
2022/07/03 09:31:00;;;;;;;4.23;3.07;;;39.90;35.40;;;;;;5073871;28;20445;-56
2022/07/03 09:33:27;;;;;;;4.00;3.00;;;39.90;35.00;;;;;;5071771;28;20564;-53
2022/07/03 09:35:55;;;;;;;4.88;2.60;;;40.00;34.80;;;;;;5070747;28;20486;-55
2022/07/03 09:38:23;;;;;;;5.37;2.97;;;40.00;34.80;;;;;;5071775;28;20235;-51
2022/07/03 09:40:52;;;;;;;3.37;2.90;;;40.00;35.00;;;;;;5075170;28;20511;-49
2022/07/03 09:43:26;;;;;;;2.60;2.40;;;40.10;34.50;;;;;;5075605;28;20471;-47
2022/07/03 09:45:55;;;;;;;3.30;3.00;;;40.00;34.50;;;;;;5073965;28;20529;-56
2022/07/03 09:48:24;;;;;;;4.53;4.17;;;39.50;34.80;;;;;;5074999;28;20459;-54
2022/07/03 09:51:08;;;;;;;2.90;2.63;;;39.50;34.60;;;;;;5075702;28;20450;-52
2022/07/03 09:53:44;;;;;;;3.13;2.83;;;39.50;34.80;;;;;;5073133;28;20471;-52
2022/07/03 09:56:11;;;;;;;3.43;3.13;;;39.60;34.60;;;;;;5066149;28;20558;-57
2022/07/03 09:58:40;;;;;;;3.23;2.93;;;39.10;34.90;;;;;;5073061;28;20470;-53
2022/07/03 10:01:18;;;;;;;3.60;3.10;;;38.70;35.20;;;;;;5068339;28;21268;-56
2022/07/03 10:03:45;;;;;;;3.07;2.87;;;38.60;35.60;;;;;;5069943;28;20542;-57
2022/07/03 10:06:11;;;;;;;3.40;2.80;;;38.60;35.70;;;;;;5065641;28;20481;-55
2022/07/03 10:08:38;;;;;;;5.30;2.97;;;38.40;36.00;;;;;;5066970;28;20519;-52
2022/07/03 10:11:06;;;;;;;3.13;2.83;;;38.30;36.70;;;;;;5073037;28;20530;-49
2022/07/03 10:13:37;;;;;;;2.83;2.63;;;38.40;36.70;;;;;;5072815;28;20527;-54
2022/07/03 10:16:08;;;;;;;3.40;3.10;;;38.60;36.50;;;;;;5075166;28;20491;-52
2022/07/03 10:18:37;;;;;;;4.43;4.03;;;38.90;36.00;;;;;;5073346;28;20519;-54
2022/07/03 10:21:07;;;;;;;3.63;3.30;;;38.60;36.10;;;;;;5075063;28;20424;-54
2022/07/03 10:23:34;;;;;;;3.03;2.67;;;38.10;36.60;;;;;;5073830;28;20651;-52
2022/07/03 10:26:01;;;;;;;3.47;3.00;;;37.50;37.00;;;;;;5073670;28;20523;-55
2022/07/03 10:28:31;;;;;;;3.33;2.90;;;36.50;38.00;;;;;;5049652;28;20466;-55
2022/07/03 10:30:59;;;;;;;3.70;2.37;;;35.90;38.40;;;;;;5052193;28;20418;-58
2022/07/03 10:33:29;;;;;;;3.87;3.50;;;35.80;39.10;;;;;;5052657;28;20439;-55
2022/07/03 10:35:58;;;;;;;3.40;2.80;;;35.60;39.50;;;;;;5050396;28;20456;-59
2022/07/03 10:38:36;;;;;;;4.77;4.37;;;35.40;40.10;;;;;;5053696;28;20516;-51
2022/07/03 10:46:38;;;;;;;4.23;2.90;;;35.10;40.80;;;;;;5050739;28;20404;-57
2022/07/03 10:49:07;;;;;;;2.90;2.70;;;34.90;41.30;;;;;;5044599;28;20483;-56
2022/07/03 10:51:53;;;;;;;3.53;3.10;;;34.70;41.30;;;;;;5030846;28;20468;-50
2022/07/03 10:54:21;;;;;;;3.40;3.20;;;34.50;41.80;;;;;;5050529;28;20440;-55
2022/07/03 10:57:18;;;;;;;3.37;3.07;;;34.30;41.90;;;;;;5050551;28;20464;-57
2022/07/03 11:00:00;;;;;;;3.40;2.93;;;34.40;42.50;;;;;;5049700;28;20472;-58
2022/07/03 11:02:30;;;;;;;3.27;2.83;;;34.50;42.30;;;;;;5050301;28;20436;-55
2022/07/03 11:05:19;;;;;;;3.00;2.77;;;34.50;42.40;;;;;;5051166;28;20453;-57
2022/07/03 11:08:06;;;;;;;3.47;3.17;;;34.30;41.80;;;;;;5045035;28;20456;-56
2022/07/03 11:10:40;;;;;;;4.03;3.30;;;34.00;41.80;;;;;;5049025;28;20521;-60
2022/07/03 11:13:09;;;;;;;3.10;2.90;;;33.60;42.50;;;;;;5047893;28;20467;-58
2022/07/03 11:15:39;;;;;;;3.23;2.90;;;33.10;42.90;;;;;;5047873;28;20459;-53
2022/07/03 11:18:20;;;;;;;3.77;2.80;;;33.00;43.10;;;;;;5046192;28;20432;-59
2022/07/03 11:21:23;;;;;;;3.30;3.00;;;32.60;44.20;;;;;;5048858;28;20464;-56
2022/07/03 11:24:18;;;;;;;3.40;3.10;;;32.30;44.40;;;;;;5053932;28;20468;-53
2022/07/03 11:26:47;;;;;;;4.13;3.53;;;31.80;44.90;;;;;;5060918;28;20427;-51
2022/07/03 11:29:28;;;;;;;3.13;2.93;;;31.50;45.10;;;;;;5064409;28;20482;-55
2022/07/03 11:31:54;;;;;;;3.20;2.63;;;31.70;45.10;;;;;;5058294;28;20436;-59
2022/07/03 11:34:22;;;;;;;3.60;2.93;;;31.90;44.70;;;;;;5043170;28;20547;-60
2022/07/03 11:36:48;;;;;;;3.20;3.00;;;31.90;44.50;;;;;;5045108;28;20428;-53
2022/07/03 11:39:20;;;;;;;2.93;2.63;;;32.20;44.50;;;;;;5050826;28;20472;-57
2022/07/03 11:41:49;;;;;;;3.33;2.73;;;32.40;44.30;;;;;;5048841;28;20526;-54
2022/07/03 11:44:21;;;;;;;4.93;3.00;;;32.50;44.10;;;;;;5050317;28;20459;-59
2022/07/03 11:46:50;;;;;;;2.60;2.40;;;32.70;43.90;;;;;;5051096;28;20471;-55
2022/07/03 11:49:19;;;;;;;2.87;2.67;;;32.80;43.10;;;;;;5050646;28;20464;-60
2022/07/03 11:51:57;;;;;;;2.70;2.50;;;32.70;43.00;;;;;;5049597;28;20446;-55
2022/07/03 11:54:25;;;;;;;2.90;2.70;;;32.70;43.20;;;;;;5050885;28;20460;-60
2022/07/03 11:56:53;;;;;;;3.13;2.83;;;32.60;43.10;;;;;;5051295;28;20911;-59
2022/07/03 11:59:20;;;;;;;3.33;2.50;;;32.60;42.70;;;;;;5052714;28;20528;-52
2022/07/03 12:01:47;;;;;;;3.60;3.30;;;32.60;43.30;;;;;;5051821;28;20542;-57
2022/07/03 12:04:20;;;;;;;6.30;3.03;;;32.60;44.30;;;;;;5051151;28;20456;-55
2022/07/03 12:06:51;;;;;;;2.93;2.73;;;32.70;43.30;;;;;;5057772;28;20470;-58
2022/07/03 12:09:20;;;;;;;2.20;2.00;;;32.50;43.10;;;;;;5074824;28;20427;-55
2022/07/03 12:12:00;;;;;;;4.10;3.50;;;32.40;43.30;;;;;;5076127;28;20447;-60
2022/07/03 12:14:45;;;;;;;3.57;3.27;;;32.40;43.30;;;;;;5073421;28;20443;-52
2022/07/03 12:17:14;;;;;;;3.77;3.10;;;32.30;44.00;;;;;;5072589;28;20502;-56
2022/07/03 12:19:46;;;;;;;4.30;3.90;;;32.30;44.50;;;;;;5074141;28;20479;-52
2022/07/03 12:22:13;;;;;;;3.70;2.83;;;32.30;44.80;;;;;;5071227;28;20419;-57
2022/07/03 12:24:41;;;;;;;3.20;3.00;;;32.20;44.70;;;;;;5071249;28;20537;-58
2022/07/03 12:27:09;;;;;;;3.23;2.77;;;32.00;44.60;;;;;;5070120;28;20444;-59
2022/07/03 12:29:37;;;;;;;4.50;2.47;;;31.80;44.50;;;;;;5068465;28;20450;-53
2022/07/03 12:32:10;;;;;;;3.93;3.43;;;31.70;45.00;;;;;;5069560;28;20483;-58
2022/07/03 12:34:38;;;;;;;3.10;2.80;;;31.60;44.90;;;;;;5071147;28;20432;-52
2022/07/03 12:37:05;;;;;;;2.90;2.70;;;31.70;45.00;;;;;;5073269;28;20446;-58
2022/07/03 12:39:45;;;;;;;2.70;2.50;;;31.60;44.70;;;;;;5071371;28;20489;-59
2022/07/03 12:42:17;;;;;;;4.37;2.80;;;31.50;44.90;;;;;;5054852;28;20455;-55
2022/07/03 12:44:54;;;;;;;3.30;3.00;;;31.70;45.10;;;;;;5060205;28;20514;-57
2022/07/03 12:47:22;;;;;;;3.80;3.50;;;31.90;45.00;;;;;;5065424;28;20512;-59
2022/07/03 12:49:55;;;;;;;2.93;2.73;;;32.10;44.70;;;;;;5063048;28;20458;-59
2022/07/03 12:52:22;;;;;;;2.63;2.43;;;32.10;44.30;;;;;;5059264;28;20432;-57
2022/07/03 12:54:49;;;;;;;3.40;2.70;;;31.80;44.10;;;;;;5054270;28;20447;-56
2022/07/03 13:00:03;;;;;;;2.87;2.57;;;31.90;44.30;;;;;;5052055;28;20466;-55
2022/07/03 13:02:30;;;;;;;4.80;3.20;;;32.00;44.20;;;;;;5053538;28;20452;-58
2022/07/03 13:04:59;;;;;;;3.07;2.60;;;32.10;44.50;;;;;;5053038;28;20523;-57
2022/07/03 13:07:29;;;;;;;6.70;2.83;;;32.30;44.00;;;;;;5053239;28;20520;-58
2022/07/03 13:10:00;;;;;;;3.07;2.87;;;32.40;43.90;;;;;;5052016;28;20986;-59
2022/07/03 13:12:28;;;;;;;3.80;3.17;;;32.40;43.60;;;;;;5053310;28;20428;-58
2022/07/03 13:14:58;;;;;;;4.57;2.97;;;32.50;43.80;;;;;;5051880;28;20475;-51
2022/07/03 13:17:40;;;;;;;3.10;2.80;;;32.50;44.20;;;;;;5054151;28;20433;-57
2022/07/03 13:20:08;;;;;;;4.73;2.40;;;32.40;44.70;;;;;;5052743;28;20482;-52